PWSweather.com
Personal Weather Stations
Station Observations
KMAMEDFI2
Medfield, MA 02052

Medfield, MA 02052

Lat: 42.1900822, Lon: -71.3296889

Elevation: 138

Station Type: Rainwise WS MK-III

http://www.medfieldweather.com

High Low Average
Temperature 40.0°F4.4°C 24.6°F-4.1°C 32.4°F0.2°C
Dew Point 28.8°F-1.8°C 14.1°F-9.9°C 22.2°F-5.4°C
Winds 9.2 mph 14.8 kmh Calm Calm 3.0 mph WSW4.8 kmh WSW
Wind Gusts 15.0 mph24.1 kmh -- 5.0 mph8.0 kmh
Humidity 90% 48% 67%
Pressure 30.08 in1018.6 mb 29.60 in1002.4 mb -
Precipitation 0.00 in0.0 mm - -
Hour Temp Dew Point Humidity Winds Wind Gusts Pressure Precip Precip Rate Daily Precip Total
12:00 AM 35.4°F1.9°C 32.2°F0.1°C 88% 6.9 mph WNW11.1 kmh WNW 9.2 mph14.8 kmh 29.55 in1000.7 mb - 0.00 in0.0 mm 1.61 in40.9 mm
12:10 AM 35.1°F1.7°C 31.3°F-0.4°C 86% 8.1 mph W13.0 kmh W 10.4 mph16.7 kmh 29.56 in1001.0 mb - 0.00 in0.0 mm 1.61 in40.9 mm
12:20 AM 34.9°F1.6°C 30.8°F-0.7°C 85% 10.4 mph WSW16.7 kmh WSW 13.8 mph22.2 kmh 29.56 in1001.0 mb - 0.00 in0.0 mm 1.61 in40.9 mm
12:30 AM 34.7°F1.5°C 30.7°F-0.7°C 85% 6.9 mph WSW11.1 kmh WSW 11.5 mph18.5 kmh 29.57 in1001.4 mb - 0.00 in0.0 mm 1.61 in40.9 mm
12:40 AM 34.3°F1.3°C 29.7°F-1.3°C 83% 9.2 mph NW14.8 kmh NW 15.0 mph24.1 kmh 29.58 in1001.7 mb - 0.00 in0.0 mm 1.61 in40.9 mm
12:50 AM 33.9°F1.1°C 29.0°F-1.7°C 82% 5.8 mph W9.3 kmh W 9.2 mph14.8 kmh 29.59 in1002.0 mb - 0.00 in0.0 mm 1.61 in40.9 mm
01:00 AM 33.7°F0.9°C 28.8°F-1.8°C 82% 5.8 mph W9.3 kmh W 9.2 mph14.8 kmh 29.60 in1002.4 mb - 0.00 in0.0 mm 0.00 in0.0 mm
01:10 AM 33.3°F0.7°C 28.1°F-2.2°C 81% 5.8 mph WNW9.3 kmh WNW 5.8 mph9.3 kmh 29.60 in1002.4 mb - 0.00 in0.0 mm 0.00 in0.0 mm
01:20 AM 32.9°F0.5°C 27.7°F-2.4°C 81% 3.5 mph WSW5.6 kmh WSW 5.8 mph9.3 kmh 29.61 in1002.7 mb - 0.00 in0.0 mm 0.00 in0.0 mm
01:30 AM 32.6°F0.3°C 27.1°F-2.7°C 80% 4.6 mph W7.4 kmh W 9.2 mph14.8 kmh 29.62 in1003.0 mb - 0.00 in0.0 mm 0.00 in0.0 mm
01:40 AM 32.6°F0.3°C 27.1°F-2.7°C 80% 2.3 mph WSW3.7 kmh WSW 9.2 mph14.8 kmh 29.62 in1003.0 mb - 0.00 in0.0 mm 0.00 in0.0 mm
01:50 AM 32.3°F0.2°C 26.8°F-2.9°C 80% 4.6 mph WNW7.4 kmh WNW 8.1 mph13.0 kmh 29.63 in1003.4 mb - 0.00 in0.0 mm 0.00 in0.0 mm
02:00 AM 32.1°F0.1°C 26.0°F-3.3°C 78% 5.8 mph WSW9.3 kmh WSW 13.8 mph22.2 kmh 29.64 in1003.7 mb - 0.00 in0.0 mm 0.00 in0.0 mm
02:10 AM 31.9°F-0.1°C 25.8°F-3.4°C 78% 5.8 mph WSW9.3 kmh WSW 5.8 mph9.3 kmh 29.64 in1003.7 mb - 0.00 in0.0 mm 0.00 in0.0 mm
02:20 AM 31.9°F-0.1°C 25.8°F-3.4°C 78% 6.9 mph SW11.1 kmh SW 8.1 mph13.0 kmh 29.64 in1003.7 mb - 0.00 in0.0 mm 0.00 in0.0 mm
02:30 AM 31.6°F-0.2°C 25.5°F-3.6°C 78% 6.9 mph WSW11.1 kmh WSW 8.1 mph13.0 kmh 29.64 in1003.7 mb - 0.00 in0.0 mm 0.00 in0.0 mm
02:40 AM 31.4°F-0.3°C 25.6°F-3.6°C 79% 4.6 mph W7.4 kmh W 6.9 mph11.1 kmh 29.65 in1004.1 mb - 0.00 in0.0 mm 0.00 in0.0 mm
02:50 AM 31.0°F-0.6°C 25.2°F-3.8°C 79% 3.5 mph WSW5.6 kmh WSW 5.8 mph9.3 kmh 29.66 in1004.4 mb - 0.00 in0.0 mm 0.00 in0.0 mm
03:00 AM 30.8°F-0.7°C 25.0°F-3.9°C 79% 5.8 mph W9.3 kmh W 8.1 mph13.0 kmh 29.66 in1004.4 mb - 0.00 in0.0 mm 0.00 in0.0 mm
03:10 AM 30.8°F-0.7°C 25.0°F-3.9°C 79% 2.3 mph W3.7 kmh W 2.3 mph3.7 kmh 29.67 in1004.7 mb - 0.00 in0.0 mm 0.00 in0.0 mm
03:20 AM 30.4°F-0.9°C 24.7°F-4.1°C 79% 2.3 mph WSW3.7 kmh WSW 2.3 mph3.7 kmh 29.68 in1005.1 mb - 0.00 in0.0 mm 0.00 in0.0 mm
03:30 AM 30.5°F-0.8°C 24.8°F-4.0°C 79% 5.8 mph WSW9.3 kmh WSW 8.1 mph13.0 kmh 29.68 in1005.1 mb - 0.00 in0.0 mm 0.00 in0.0 mm
03:40 AM 30.9°F-0.6°C 24.8°F-4.0°C 78% 4.6 mph WSW7.4 kmh WSW 8.1 mph13.0 kmh 29.67 in1004.7 mb - 0.00 in0.0 mm 0.00 in0.0 mm
03:50 AM 30.8°F-0.7°C 24.5°F-4.2°C 77% 5.8 mph WSW9.3 kmh WSW 10.4 mph16.7 kmh 29.68 in1005.1 mb - 0.00 in0.0 mm 0.00 in0.0 mm
04:00 AM 30.7°F-0.7°C 24.3°F-4.3°C 77% 4.6 mph WNW7.4 kmh WNW 6.9 mph11.1 kmh 29.68 in1005.1 mb - 0.00 in0.0 mm 0.00 in0.0 mm
04:10 AM 30.6°F-0.8°C 23.9°F-4.5°C 76% 4.6 mph WNW7.4 kmh WNW 2.3 mph3.7 kmh 29.68 in1005.1 mb - 0.00 in0.0 mm 0.00 in0.0 mm
04:20 AM 30.5°F-0.8°C 24.1°F-4.4°C 77% 3.5 mph WSW5.6 kmh WSW 5.8 mph9.3 kmh 29.68 in1005.1 mb - 0.00 in0.0 mm 0.00 in0.0 mm
04:30 AM 30.7°F-0.7°C 23.7°F-4.6°C 75% 4.6 mph W7.4 kmh W 6.9 mph11.1 kmh 29.68 in1005.1 mb - 0.00 in0.0 mm 0.00 in0.0 mm
04:40 AM 30.4°F-0.9°C 23.7°F-4.6°C 76% 2.3 mph NNW3.7 kmh NNW 3.5 mph5.6 kmh 29.69 in1005.4 mb - 0.00 in0.0 mm 0.00 in0.0 mm
04:50 AM 30.0°F-1.1°C 24.3°F-4.3°C 79% 2.3 mph W3.7 kmh W 8.1 mph13.0 kmh 29.69 in1005.4 mb - 0.00 in0.0 mm 0.00 in0.0 mm
05:00 AM 30.0°F-1.1°C 23.4°F-4.8°C 76% 3.5 mph W5.6 kmh W 6.9 mph11.1 kmh 29.70 in1005.8 mb - 0.00 in0.0 mm 0.00 in0.0 mm
05:10 AM 29.8°F-1.2°C 23.8°F-4.6°C 78% 3.5 mph W5.6 kmh W 9.2 mph14.8 kmh 29.69 in1005.4 mb - 0.00 in0.0 mm 0.00 in0.0 mm
05:20 AM 29.9°F-1.2°C 23.6°F-4.7°C 77% 4.6 mph W7.4 kmh W 5.8 mph9.3 kmh 29.70 in1005.8 mb - 0.00 in0.0 mm 0.00 in0.0 mm
05:30 AM 29.8°F-1.2°C 24.1°F-4.4°C 79% 2.3 mph W3.7 kmh W 2.3 mph3.7 kmh 29.70 in1005.8 mb - 0.00 in0.0 mm 0.00 in0.0 mm
05:40 AM 29.8°F-1.2°C 23.5°F-4.7°C 77% 2.3 mph WSW3.7 kmh WSW 2.3 mph3.7 kmh 29.71 in1006.1 mb - 0.00 in0.0 mm 0.00 in0.0 mm
05:50 AM 29.7°F-1.3°C 23.7°F-4.6°C 78% 2.3 mph WSW3.7 kmh WSW 6.9 mph11.1 kmh 29.72 in1006.4 mb - 0.00 in0.0 mm 0.00 in0.0 mm
06:00 AM 29.5°F-1.4°C 23.5°F-4.7°C 78% 2.3 mph NW3.7 kmh NW 2.3 mph3.7 kmh 29.72 in1006.4 mb - 0.00 in0.0 mm 0.00 in0.0 mm
06:10 AM 29.5°F-1.4°C 23.5°F-4.7°C 78% 2.3 mph NW3.7 kmh NW 2.3 mph3.7 kmh 29.72 in1006.4 mb - 0.00 in0.0 mm 0.00 in0.0 mm
06:20 AM 29.3°F-1.5°C 23.9°F-4.5°C 80% 1.2 mph WSW1.9 kmh WSW 2.3 mph3.7 kmh 29.73 in1006.8 mb - 0.00 in0.0 mm 0.00 in0.0 mm
06:30 AM 28.6°F-1.9°C 23.8°F-4.6°C 82% Calm Calm -- 29.74 in1007.1 mb - 0.00 in0.0 mm 0.00 in0.0 mm
06:40 AM 27.8°F-2.3°C 23.9°F-4.5°C 85% Calm Calm -- 29.75 in1007.5 mb - 0.00 in0.0 mm 0.00 in0.0 mm
06:50 AM 27.5°F-2.5°C 24.1°F-4.4°C 87% Calm Calm -- 29.76 in1007.8 mb - 0.00 in0.0 mm 0.00 in0.0 mm
07:00 AM 27.4°F-2.6°C 24.3°F-4.3°C 88% 1.2 mph SW1.9 kmh SW 2.3 mph3.7 kmh 29.76 in1007.8 mb - 0.00 in0.0 mm 0.00 in0.0 mm
07:10 AM 26.9°F-2.8°C 24.4°F-4.2°C 90% 1.2 mph WNW1.9 kmh WNW 1.2 mph1.9 kmh 29.76 in1007.8 mb - 0.00 in0.0 mm 0.00 in0.0 mm
07:20 AM 27.3°F-2.6°C 23.9°F-4.5°C 87% 2.3 mph W3.7 kmh W 2.3 mph3.7 kmh 29.77 in1008.1 mb - 0.00 in0.0 mm 0.00 in0.0 mm
07:30 AM 27.9°F-2.3°C 24.0°F-4.4°C 85% 2.3 mph W3.7 kmh W 2.3 mph3.7 kmh 29.78 in1008.5 mb - 0.00 in0.0 mm 0.00 in0.0 mm
07:40 AM 27.9°F-2.3°C 24.0°F-4.4°C 85% 1.2 mph WSW1.9 kmh WSW 2.3 mph3.7 kmh 29.78 in1008.5 mb - 0.00 in0.0 mm 0.00 in0.0 mm
07:50 AM 27.9°F-2.3°C 24.3°F-4.3°C 86% Calm Calm 2.3 mph3.7 kmh 29.80 in1009.1 mb - 0.00 in0.0 mm 0.00 in0.0 mm
08:00 AM 27.7°F-2.4°C 24.6°F-4.1°C 88% 1.2 mph NE1.9 kmh NE 2.3 mph3.7 kmh 29.80 in1009.1 mb - 0.00 in0.0 mm 0.00 in0.0 mm
08:10 AM 27.8°F-2.3°C 25.0°F-3.9°C 89% 1.2 mph W1.9 kmh W 2.3 mph3.7 kmh 29.80 in1009.1 mb - 0.00 in0.0 mm 0.00 in0.0 mm
08:20 AM 27.7°F-2.4°C 24.6°F-4.1°C 88% 2.3 mph WSW3.7 kmh WSW 2.3 mph3.7 kmh 29.81 in1009.5 mb - 0.00 in0.0 mm 0.00 in0.0 mm
08:30 AM 28.4°F-2.0°C 25.0°F-3.9°C 87% Calm Calm -- 29.81 in1009.5 mb - 0.00 in0.0 mm 0.00 in0.0 mm
08:40 AM 28.6°F-1.9°C 26.0°F-3.3°C 90% Calm Calm -- 29.81 in1009.5 mb - 0.00 in0.0 mm 0.00 in0.0 mm
08:50 AM 28.8°F-1.8°C 25.4°F-3.7°C 87% 2.3 mph WNW3.7 kmh WNW 2.3 mph3.7 kmh 29.82 in1009.8 mb - 0.00 in0.0 mm 0.00 in0.0 mm
09:00 AM 29.5°F-1.4°C 25.3°F-3.7°C 84% 2.3 mph WSW3.7 kmh WSW 2.3 mph3.7 kmh 29.82 in1009.8 mb - 0.00 in0.0 mm 0.00 in0.0 mm
09:10 AM 30.3°F-0.9°C 25.7°F-3.5°C 83% 2.3 mph WSW3.7 kmh WSW 2.3 mph3.7 kmh 29.82 in1009.8 mb - 0.00 in0.0 mm 0.00 in0.0 mm
09:20 AM 30.9°F-0.6°C 25.1°F-3.8°C 79% 3.5 mph WSW5.6 kmh WSW 2.3 mph3.7 kmh 29.82 in1009.8 mb - 0.00 in0.0 mm 0.00 in0.0 mm
09:30 AM 31.4°F-0.3°C 25.6°F-3.6°C 79% 3.5 mph WSW5.6 kmh WSW 5.8 mph9.3 kmh 29.82 in1009.8 mb - 0.00 in0.0 mm 0.00 in0.0 mm
09:40 AM 31.7°F-0.2°C 25.6°F-3.6°C 78% 1.2 mph WNW1.9 kmh WNW 2.3 mph3.7 kmh 29.82 in1009.8 mb - 0.00 in0.0 mm 0.00 in0.0 mm
09:50 AM 32.5°F0.3°C 25.4°F-3.7°C 75% 3.5 mph SW5.6 kmh SW 5.8 mph9.3 kmh 29.82 in1009.8 mb - 0.00 in0.0 mm 0.00 in0.0 mm
10:00 AM 33.5°F0.8°C 26.4°F-3.1°C 75% 1.2 mph W1.9 kmh W 3.5 mph5.6 kmh 29.83 in1010.2 mb - 0.00 in0.0 mm 0.00 in0.0 mm
10:10 AM 33.7°F0.9°C 25.3°F-3.7°C 71% 4.6 mph W7.4 kmh W 9.2 mph14.8 kmh 29.84 in1010.5 mb - 0.00 in0.0 mm 0.00 in0.0 mm
10:20 AM 33.7°F0.9°C 25.3°F-3.7°C 71% 3.5 mph WNW5.6 kmh WNW 8.1 mph13.0 kmh 29.84 in1010.5 mb - 0.00 in0.0 mm 0.00 in0.0 mm
10:30 AM 33.8°F1.0°C 25.4°F-3.7°C 71% 3.5 mph W5.6 kmh W 9.2 mph14.8 kmh 29.84 in1010.5 mb - 0.00 in0.0 mm 0.00 in0.0 mm
10:40 AM 34.4°F1.3°C 25.6°F-3.6°C 70% 4.6 mph NW7.4 kmh NW 6.9 mph11.1 kmh 29.84 in1010.5 mb - 0.00 in0.0 mm 0.00 in0.0 mm
10:50 AM 34.3°F1.3°C 24.9°F-3.9°C 68% 3.5 mph WSW5.6 kmh WSW 8.1 mph13.0 kmh 29.84 in1010.5 mb - 0.00 in0.0 mm 0.00 in0.0 mm
11:00 AM 34.7°F1.5°C 24.1°F-4.4°C 65% 4.6 mph SW7.4 kmh SW 10.4 mph16.7 kmh 29.84 in1010.5 mb - 0.00 in0.0 mm 0.00 in0.0 mm
11:10 AM 35.4°F1.9°C 24.4°F-4.2°C 64% 4.6 mph NW7.4 kmh NW 5.8 mph9.3 kmh 29.84 in1010.5 mb - 0.00 in0.0 mm 0.00 in0.0 mm
11:20 AM 36.0°F2.2°C 23.8°F-4.6°C 61% 6.9 mph WNW11.1 kmh WNW 9.2 mph14.8 kmh 29.84 in1010.5 mb - 0.00 in0.0 mm 0.00 in0.0 mm
11:30 AM 36.9°F2.7°C 24.3°F-4.3°C 60% 6.9 mph WSW11.1 kmh WSW 8.1 mph13.0 kmh 29.84 in1010.5 mb - 0.00 in0.0 mm 0.00 in0.0 mm
11:40 AM 37.0°F2.8°C 24.0°F-4.4°C 59% 4.6 mph W7.4 kmh W 5.8 mph9.3 kmh 29.85 in1010.8 mb - 0.00 in0.0 mm 0.00 in0.0 mm
11:50 AM 37.2°F2.9°C 24.2°F-4.3°C 59% 2.3 mph WNW3.7 kmh WNW 5.8 mph9.3 kmh 29.85 in1010.8 mb - 0.00 in0.0 mm 0.00 in0.0 mm
12:00 PM 38.4°F3.6°C 25.3°F-3.7°C 59% 4.6 mph WSW7.4 kmh WSW 6.9 mph11.1 kmh 29.85 in1010.8 mb - 0.00 in0.0 mm 0.00 in0.0 mm
12:10 PM 38.0°F3.3°C 23.7°F-4.6°C 56% 1.2 mph SSE1.9 kmh SSE 2.3 mph3.7 kmh 29.86 in1011.2 mb - 0.00 in0.0 mm 0.00 in0.0 mm
12:20 PM 37.1°F2.8°C 23.7°F-4.6°C 58% 2.3 mph WSW3.7 kmh WSW 2.3 mph3.7 kmh 29.85 in1010.8 mb - 0.00 in0.0 mm 0.00 in0.0 mm
12:30 PM 37.4°F3.0°C 24.0°F-4.4°C 58% 6.9 mph WSW11.1 kmh WSW 9.2 mph14.8 kmh 29.84 in1010.5 mb - 0.00 in0.0 mm 0.00 in0.0 mm
12:40 PM 36.9°F2.7°C 23.9°F-4.5°C 59% 2.3 mph WNW3.7 kmh WNW 5.8 mph9.3 kmh 29.84 in1010.5 mb - 0.00 in0.0 mm 0.00 in0.0 mm
12:50 PM 37.8°F3.2°C 24.3°F-4.3°C 58% 3.5 mph SW5.6 kmh SW 3.5 mph5.6 kmh 29.84 in1010.5 mb - 0.00 in0.0 mm 0.00 in0.0 mm
01:00 PM 38.0°F3.3°C 23.3°F-4.8°C 55% 5.8 mph WSW9.3 kmh WSW 8.1 mph13.0 kmh 29.84 in1010.5 mb - 0.00 in0.0 mm 0.00 in0.0 mm
01:10 PM 37.6°F3.1°C 24.1°F-4.4°C 58% 4.6 mph WNW7.4 kmh WNW 6.9 mph11.1 kmh 29.84 in1010.5 mb - 0.00 in0.0 mm 0.00 in0.0 mm
01:20 PM 38.8°F3.8°C 23.6°F-4.7°C 54% 8.1 mph NW13.0 kmh NW 9.2 mph14.8 kmh 29.84 in1010.5 mb - 0.00 in0.0 mm 0.00 in0.0 mm
01:30 PM 38.8°F3.8°C 24.0°F-4.4°C 55% 4.6 mph S7.4 kmh S 5.8 mph9.3 kmh 29.84 in1010.5 mb - 0.00 in0.0 mm 0.00 in0.0 mm
01:40 PM 38.5°F3.6°C 23.7°F-4.6°C 55% 3.5 mph WSW5.6 kmh WSW 3.5 mph5.6 kmh 29.84 in1010.5 mb - 0.00 in0.0 mm 0.00 in0.0 mm
01:50 PM 38.8°F3.8°C 23.6°F-4.7°C 54% 3.5 mph SW5.6 kmh SW 5.8 mph9.3 kmh 29.84 in1010.5 mb - 0.00 in0.0 mm 0.00 in0.0 mm
02:00 PM 37.8°F3.2°C 23.1°F-4.9°C 55% 4.6 mph WSW7.4 kmh WSW 9.2 mph14.8 kmh 29.84 in1010.5 mb - 0.00 in0.0 mm 0.00 in0.0 mm
02:10 PM 37.3°F2.9°C 23.1°F-4.9°C 56% 4.6 mph WSW7.4 kmh WSW 3.5 mph5.6 kmh 29.84 in1010.5 mb - 0.00 in0.0 mm 0.00 in0.0 mm
02:20 PM 36.8°F2.7°C 23.0°F-5.0°C 57% 2.3 mph NW3.7 kmh NW 2.3 mph3.7 kmh 29.83 in1010.2 mb - 0.00 in0.0 mm 0.00 in0.0 mm
02:30 PM 37.0°F2.8°C 22.8°F-5.1°C 56% 2.3 mph W3.7 kmh W 2.3 mph3.7 kmh 29.83 in1010.2 mb - 0.00 in0.0 mm 0.00 in0.0 mm
02:40 PM 38.7°F3.7°C 23.4°F-4.8°C 54% 4.6 mph NW7.4 kmh NW 8.1 mph13.0 kmh 29.83 in1010.2 mb - 0.00 in0.0 mm 0.00 in0.0 mm
02:50 PM 39.5°F4.2°C 23.7°F-4.6°C 53% 2.3 mph SSE3.7 kmh SSE 8.1 mph13.0 kmh 29.84 in1010.5 mb - 0.00 in0.0 mm 0.00 in0.0 mm
03:00 PM 39.9°F4.4°C 24.2°F-4.3°C 53% 5.8 mph WNW9.3 kmh WNW 5.8 mph9.3 kmh 29.84 in1010.5 mb - 0.00 in0.0 mm 0.00 in0.0 mm
03:10 PM 40.0°F4.4°C 23.7°F-4.6°C 52% 3.5 mph WNW5.6 kmh WNW 3.5 mph5.6 kmh 29.84 in1010.5 mb - 0.00 in0.0 mm 0.00 in0.0 mm
03:20 PM 39.7°F4.3°C 22.6°F-5.2°C 50% 2.3 mph SSW3.7 kmh SSW 5.8 mph9.3 kmh 29.85 in1010.8 mb - 0.00 in0.0 mm 0.00 in0.0 mm
03:30 PM 39.7°F4.3°C 23.5°F-4.7°C 52% 4.6 mph W7.4 kmh W 8.1 mph13.0 kmh 29.85 in1010.8 mb - 0.00 in0.0 mm 0.00 in0.0 mm
03:40 PM 39.4°F4.1°C 23.7°F-4.6°C 53% 3.5 mph SW5.6 kmh SW 2.3 mph3.7 kmh 29.85 in1010.8 mb - 0.00 in0.0 mm 0.00 in0.0 mm
03:50 PM 39.2°F4.0°C 22.1°F-5.5°C 50% 4.6 mph WNW7.4 kmh WNW 2.3 mph3.7 kmh 29.85 in1010.8 mb - 0.00 in0.0 mm 0.00 in0.0 mm
04:00 PM 39.3°F4.1°C 23.1°F-4.9°C 52% 2.3 mph W3.7 kmh W 8.1 mph13.0 kmh 29.85 in1010.8 mb - 0.00 in0.0 mm 0.00 in0.0 mm
04:10 PM 38.9°F3.8°C 22.3°F-5.4°C 51% 6.9 mph WNW11.1 kmh WNW 9.2 mph14.8 kmh 29.86 in1011.2 mb - 0.00 in0.0 mm 0.00 in0.0 mm
04:20 PM 38.3°F3.5°C 23.1°F-4.9°C 54% 4.6 mph WSW7.4 kmh WSW 5.8 mph9.3 kmh 29.86 in1011.2 mb - 0.00 in0.0 mm 0.00 in0.0 mm
04:30 PM 37.3°F2.9°C 23.1°F-4.9°C 56% 9.2 mph WSW14.8 kmh WSW 15.0 mph24.1 kmh 29.86 in1011.2 mb - 0.00 in0.0 mm 0.00 in0.0 mm
04:40 PM 36.8°F2.7°C 23.4°F-4.8°C 58% 3.5 mph W5.6 kmh W 9.2 mph14.8 kmh 29.86 in1011.2 mb - 0.00 in0.0 mm 0.00 in0.0 mm
04:50 PM 36.4°F2.4°C 23.0°F-5.0°C 58% 5.8 mph W9.3 kmh W 9.2 mph14.8 kmh 29.86 in1011.2 mb - 0.00 in0.0 mm 0.00 in0.0 mm
05:00 PM 36.4°F2.4°C 22.6°F-5.2°C 57% 4.6 mph W7.4 kmh W 3.5 mph5.6 kmh 29.86 in1011.2 mb - 0.00 in0.0 mm 0.00 in0.0 mm
05:10 PM 36.4°F2.4°C 22.1°F-5.5°C 56% 2.3 mph NW3.7 kmh NW 8.1 mph13.0 kmh 29.87 in1011.5 mb - 0.00 in0.0 mm 0.00 in0.0 mm
05:20 PM 36.0°F2.2°C 22.2°F-5.4°C 57% 2.3 mph WNW3.7 kmh WNW 5.8 mph9.3 kmh 29.87 in1011.5 mb - 0.00 in0.0 mm 0.00 in0.0 mm
05:30 PM 35.8°F2.1°C 21.6°F-5.8°C 56% 3.5 mph WNW5.6 kmh WNW 5.8 mph9.3 kmh 29.87 in1011.5 mb - 0.00 in0.0 mm 0.00 in0.0 mm
05:40 PM 35.4°F1.9°C 23.2°F-4.9°C 61% Calm Calm -- 29.88 in1011.9 mb - 0.00 in0.0 mm 0.00 in0.0 mm
05:50 PM 34.8°F1.6°C 22.3°F-5.4°C 60% 3.5 mph WSW5.6 kmh WSW 2.3 mph3.7 kmh 29.88 in1011.9 mb - 0.00 in0.0 mm 0.00 in0.0 mm
06:00 PM 34.8°F1.6°C 22.3°F-5.4°C 60% Calm Calm 1.2 mph1.9 kmh 29.89 in1012.2 mb - 0.00 in0.0 mm 0.00 in0.0 mm
06:10 PM 34.2°F1.2°C 22.9°F-5.1°C 63% 2.3 mph WSW3.7 kmh WSW 2.3 mph3.7 kmh 29.89 in1012.2 mb - 0.00 in0.0 mm 0.00 in0.0 mm
06:20 PM 34.2°F1.2°C 18.8°F-7.3°C 53% 5.8 mph W9.3 kmh W 9.2 mph14.8 kmh 29.89 in1012.2 mb - 0.00 in0.0 mm 0.00 in0.0 mm
06:30 PM 34.3°F1.3°C 16.6°F-8.6°C 48% 3.5 mph WNW5.6 kmh WNW 3.5 mph5.6 kmh 29.90 in1012.5 mb - 0.00 in0.0 mm 0.00 in0.0 mm
06:40 PM 34.0°F1.1°C 17.3°F-8.2°C 50% 3.5 mph SW5.6 kmh SW 5.8 mph9.3 kmh 29.90 in1012.5 mb - 0.00 in0.0 mm 0.00 in0.0 mm
06:50 PM 33.8°F1.0°C 17.1°F-8.3°C 50% 2.3 mph W3.7 kmh W 5.8 mph9.3 kmh 29.91 in1012.9 mb - 0.00 in0.0 mm 0.00 in0.0 mm
07:00 PM 33.8°F1.0°C 16.6°F-8.6°C 49% 3.5 mph W5.6 kmh W 8.1 mph13.0 kmh 29.92 in1013.2 mb - 0.00 in0.0 mm 0.00 in0.0 mm
07:10 PM 33.9°F1.1°C 16.7°F-8.5°C 49% 3.5 mph W5.6 kmh W 2.3 mph3.7 kmh 29.92 in1013.2 mb - 0.00 in0.0 mm 0.00 in0.0 mm
07:20 PM 33.9°F1.1°C 16.7°F-8.5°C 49% 2.3 mph W3.7 kmh W 2.3 mph3.7 kmh 29.93 in1013.5 mb - 0.00 in0.0 mm 0.00 in0.0 mm
07:30 PM 33.6°F0.9°C 16.9°F-8.4°C 50% 4.6 mph W7.4 kmh W 6.9 mph11.1 kmh 29.93 in1013.5 mb - 0.00 in0.0 mm 0.00 in0.0 mm
07:40 PM 33.6°F0.9°C 18.3°F-7.6°C 53% 4.6 mph WSW7.4 kmh WSW 11.5 mph18.5 kmh 29.94 in1013.9 mb - 0.00 in0.0 mm 0.00 in0.0 mm
07:50 PM 33.5°F0.8°C 19.5°F-6.9°C 56% 4.6 mph WSW7.4 kmh WSW 6.9 mph11.1 kmh 29.96 in1014.6 mb - 0.00 in0.0 mm 0.00 in0.0 mm
08:00 PM 33.3°F0.7°C 20.5°F-6.4°C 59% 4.6 mph WSW7.4 kmh WSW 15.0 mph24.1 kmh 29.97 in1014.9 mb - 0.00 in0.0 mm 0.00 in0.0 mm
08:10 PM 32.7°F0.4°C 21.1°F-6.1°C 62% 2.3 mph W3.7 kmh W 9.2 mph14.8 kmh 29.97 in1014.9 mb - 0.00 in0.0 mm 0.00 in0.0 mm
08:20 PM 32.3°F0.2°C 20.3°F-6.5°C 61% 4.6 mph WSW7.4 kmh WSW 9.2 mph14.8 kmh 29.98 in1015.2 mb - 0.00 in0.0 mm 0.00 in0.0 mm
08:30 PM 31.9°F-0.1°C 20.3°F-6.5°C 62% 2.3 mph SW3.7 kmh SW 2.3 mph3.7 kmh 29.98 in1015.2 mb - 0.00 in0.0 mm 0.00 in0.0 mm
08:40 PM 31.4°F-0.3°C 20.6°F-6.3°C 64% 3.5 mph WSW5.6 kmh WSW 5.8 mph9.3 kmh 29.99 in1015.6 mb - 0.00 in0.0 mm 0.00 in0.0 mm
08:50 PM 31.2°F-0.4°C 18.9°F-7.3°C 60% 3.5 mph W5.6 kmh W 13.8 mph22.2 kmh 30.00 in1015.9 mb - 0.00 in0.0 mm 0.00 in0.0 mm
09:00 PM 30.9°F-0.6°C 17.0°F-8.3°C 56% 4.6 mph WSW7.4 kmh WSW 9.2 mph14.8 kmh 30.01 in1016.3 mb - 0.00 in0.0 mm 0.00 in0.0 mm
09:10 PM 30.6°F-0.8°C 16.4°F-8.7°C 55% 5.8 mph WSW9.3 kmh WSW 9.2 mph14.8 kmh 30.01 in1016.3 mb - 0.00 in0.0 mm 0.00 in0.0 mm
09:20 PM 30.2°F-1.0°C 16.8°F-8.4°C 57% 4.6 mph W7.4 kmh W 5.8 mph9.3 kmh 30.01 in1016.3 mb - 0.00 in0.0 mm 0.00 in0.0 mm
09:30 PM 29.9°F-1.2°C 16.9°F-8.4°C 58% 2.3 mph WSW3.7 kmh WSW 5.8 mph9.3 kmh 30.02 in1016.6 mb - 0.00 in0.0 mm 0.00 in0.0 mm
09:40 PM 29.5°F-1.4°C 16.1°F-8.8°C 57% 5.8 mph NW9.3 kmh NW 8.1 mph13.0 kmh 30.01 in1016.3 mb - 0.00 in0.0 mm 0.00 in0.0 mm
09:50 PM 29.4°F-1.4°C 16.0°F-8.9°C 57% 2.3 mph W3.7 kmh W 2.3 mph3.7 kmh 30.01 in1016.3 mb - 0.00 in0.0 mm 0.00 in0.0 mm
10:00 PM 29.2°F-1.6°C 15.8°F-9.0°C 57% 4.6 mph WSW7.4 kmh WSW 11.5 mph18.5 kmh 30.01 in1016.3 mb - 0.00 in0.0 mm 0.00 in0.0 mm
10:10 PM 29.1°F-1.6°C 15.7°F-9.1°C 57% 3.5 mph W5.6 kmh W 6.9 mph11.1 kmh 30.02 in1016.6 mb - 0.00 in0.0 mm 0.00 in0.0 mm
10:20 PM 28.6°F-1.9°C 16.1°F-8.8°C 59% 4.6 mph WSW7.4 kmh WSW 5.8 mph9.3 kmh 30.02 in1016.6 mb - 0.00 in0.0 mm 0.00 in0.0 mm
10:30 PM 28.0°F-2.2°C 17.4°F-8.1°C 64% Calm Calm -- 30.02 in1016.6 mb - 0.00 in0.0 mm 0.00 in0.0 mm
10:40 PM 26.8°F-2.9°C 16.2°F-8.8°C 64% 1.2 mph WSW1.9 kmh WSW 2.3 mph3.7 kmh 30.02 in1016.6 mb - 0.00 in0.0 mm 0.00 in0.0 mm
10:50 PM 26.9°F-2.8°C 14.9°F-9.5°C 60% 3.5 mph WNW5.6 kmh WNW 8.1 mph13.0 kmh 30.02 in1016.6 mb - 0.00 in0.0 mm 0.00 in0.0 mm
11:00 PM 27.5°F-2.5°C 14.6°F-9.7°C 58% 2.3 mph W3.7 kmh W 3.5 mph5.6 kmh 30.01 in1016.3 mb - 0.00 in0.0 mm 0.00 in0.0 mm
11:10 PM 27.2°F-2.7°C 14.8°F-9.6°C 59% 1.2 mph WNW1.9 kmh WNW 2.3 mph3.7 kmh 30.02 in1016.6 mb - 0.00 in0.0 mm 0.00 in0.0 mm
11:20 PM 26.9°F-2.8°C 14.1°F-9.9°C 58% 2.3 mph W3.7 kmh W 2.3 mph3.7 kmh 30.02 in1016.6 mb - 0.00 in0.0 mm 0.00 in0.0 mm
11:30 PM 26.8°F-2.9°C 15.5°F-9.2°C 62% 1.2 mph NW1.9 kmh NW 2.3 mph3.7 kmh 30.03 in1016.9 mb - 0.00 in0.0 mm 0.00 in0.0 mm
11:40 PM 25.8°F-3.4°C 15.6°F-9.1°C 65% Calm Calm 2.3 mph3.7 kmh 30.04 in1017.3 mb - 0.00 in0.0 mm 0.00 in0.0 mm
11:50 PM 25.6°F-3.6°C 15.1°F-9.4°C 64% 2.3 mph WSW3.7 kmh WSW 2.3 mph3.7 kmh 30.05 in1017.6 mb - 0.00 in0.0 mm 0.00 in0.0 mm